createdAt,value
2023-03-06T00:00:23.215Z,1.80
2023-03-06T00:02:52.206Z,1.80
2023-03-06T00:05:20.309Z,1.80
2023-03-06T00:07:48.038Z,1.60
2023-03-06T00:10:16.812Z,1.80
2023-03-06T00:12:44.558Z,1.50
2023-03-06T00:15:14.081Z,1.77
2023-03-06T00:17:42.008Z,1.87
2023-03-06T00:20:11.166Z,1.90
2023-03-06T00:22:39.117Z,2.00
2023-03-06T00:25:07.335Z,2.30
2023-03-06T00:27:35.223Z,2.30
2023-03-06T00:30:03.023Z,2.40
2023-03-06T00:32:32.174Z,2.37
2023-03-06T00:34:59.934Z,2.60
2023-03-06T00:37:27.631Z,2.50
2023-03-06T00:39:55.480Z,2.33
2023-03-06T00:42:23.203Z,2.70
2023-03-06T00:44:50.923Z,2.40
2023-03-06T00:47:18.639Z,2.23
2023-03-06T00:49:47.851Z,2.47
2023-03-06T00:52:15.624Z,2.60
2023-03-06T00:54:43.419Z,2.67
2023-03-06T00:57:11.180Z,3.00
2023-03-06T00:59:38.867Z,2.90
2023-03-06T01:02:07.686Z,2.80
2023-03-06T01:04:35.490Z,2.67
2023-03-06T01:07:04.716Z,3.10
2023-03-06T01:09:32.422Z,3.10
2023-03-06T01:12:00.191Z,3.20
2023-03-06T01:14:28.012Z,3.07
2023-03-06T01:16:55.754Z,3.20
2023-03-06T01:19:23.510Z,3.17
2023-03-06T01:21:51.266Z,3.33
2023-03-06T01:24:20.487Z,3.20
2023-03-06T01:26:48.165Z,3.17
2023-03-06T01:29:15.888Z,3.40
2023-03-06T01:31:43.626Z,3.50
2023-03-06T01:34:11.355Z,4.00
2023-03-06T01:36:39.183Z,3.60
2023-03-06T01:39:06.983Z,4.13
2023-03-06T01:41:36.050Z,4.30
2023-03-06T01:44:04.263Z,5.17
2023-03-06T01:46:34.536Z,5.10
2023-03-06T01:49:04.033Z,5.20
2023-03-06T01:51:33.461Z,5.47
2023-03-06T01:54:03.142Z,5.40
2023-03-06T01:56:30.876Z,5.73
2023-03-06T01:59:00.032Z,5.27
2023-03-06T02:01:27.889Z,6.07
2023-03-06T02:03:56.381Z,6.30
2023-03-06T02:06:24.157Z,6.73
2023-03-06T02:08:53.261Z,6.80
2023-03-06T02:11:22.005Z,6.60
2023-03-06T02:13:50.262Z,6.47
2023-03-06T02:16:21.204Z,7.20
2023-03-06T02:18:49.958Z,7.23
2023-03-06T02:21:21.098Z,7.73
2023-03-06T02:23:55.576Z,8.20
2023-03-06T02:26:25.066Z,8.03
2023-03-06T02:28:52.745Z,8.27
2023-03-06T02:31:22.368Z,8.23
2023-03-06T02:34:01.525Z,8.40
2023-03-06T02:36:30.025Z,7.93
2023-03-06T02:38:58.262Z,8.03
2023-03-06T02:41:27.347Z,8.57
2023-03-06T02:43:55.015Z,8.60
2023-03-06T02:46:22.713Z,8.23
2023-03-06T02:48:50.448Z,8.50
2023-03-06T02:51:18.139Z,8.80
2023-03-06T02:53:45.830Z,8.63
2023-03-06T02:56:13.717Z,8.60
2023-03-06T02:58:43.200Z,8.70
2023-03-06T03:01:10.918Z,7.97
2023-03-06T03:03:38.689Z,8.13
2023-03-06T03:06:07.106Z,8.47
2023-03-06T03:08:35.125Z,7.77
2023-03-06T03:11:03.159Z,7.97
2023-03-06T03:13:30.841Z,8.23
2023-03-06T03:16:00.838Z,8.17
2023-03-06T03:18:28.782Z,8.33
2023-03-06T03:20:56.936Z,8.23
2023-03-06T03:23:24.848Z,8.40
2023-03-06T03:25:52.715Z,7.93
2023-03-06T03:28:20.487Z,8.23
2023-03-06T03:30:48.363Z,8.40
2023-03-06T03:33:17.549Z,8.50
2023-03-06T03:35:45.278Z,8.23
2023-03-06T03:38:13.079Z,8.40
2023-03-06T03:40:40.763Z,8.60
2023-03-06T03:43:08.482Z,8.77
2023-03-06T03:45:36.164Z,8.60
2023-03-06T03:48:03.846Z,8.63
2023-03-06T03:50:33.889Z,8.63
2023-03-06T03:53:01.623Z,8.33
2023-03-06T03:55:29.412Z,8.63
2023-03-06T03:57:57.178Z,8.70
2023-03-06T04:00:25.002Z,8.30
2023-03-06T04:02:52.691Z,8.97
2023-03-06T04:05:20.467Z,9.40
2023-03-06T04:07:49.567Z,9.07
2023-03-06T04:10:17.381Z,8.90
2023-03-06T04:12:45.150Z,9.57
2023-03-06T04:15:12.912Z,9.17
2023-03-06T04:17:40.584Z,8.97
2023-03-06T04:20:08.908Z,9.37
2023-03-06T04:22:36.593Z,9.60
2023-03-06T04:25:06.082Z,10.23
2023-03-06T04:27:33.790Z,9.80
2023-03-06T04:30:01.437Z,10.10
2023-03-06T04:32:29.231Z,9.70
2023-03-06T04:34:56.980Z,10.17
2023-03-06T04:37:25.705Z,10.30
2023-03-06T04:39:53.603Z,10.47
2023-03-06T04:42:22.738Z,10.33
2023-03-06T04:44:50.453Z,10.93
2023-03-06T04:47:19.220Z,11.17
2023-03-06T04:49:47.211Z,10.87
2023-03-06T04:52:14.969Z,11.10
2023-03-06T04:54:42.974Z,10.90
2023-03-06T04:57:11.368Z,10.30
2023-03-06T04:59:40.499Z,10.10
2023-03-06T05:02:08.345Z,10.00
2023-03-06T05:04:36.121Z,9.67
2023-03-06T05:07:03.915Z,10.00
2023-03-06T05:09:31.611Z,10.13
2023-03-06T05:11:59.339Z,10.47
2023-03-06T05:14:27.039Z,10.57
2023-03-06T05:16:56.136Z,10.13
2023-03-06T05:19:23.883Z,11.00
2023-03-06T05:21:51.599Z,10.50
2023-03-06T05:24:19.336Z,10.63
2023-03-06T05:26:47.022Z,10.67
2023-03-06T05:29:14.760Z,10.87
2023-03-06T05:31:42.470Z,11.20
2023-03-06T05:34:14.156Z,10.77
2023-03-06T05:36:42.120Z,10.73
2023-03-06T05:39:10.273Z,10.83
2023-03-06T05:41:37.962Z,10.53
2023-03-06T05:44:05.740Z,10.97
2023-03-06T05:46:33.444Z,10.17
2023-03-06T05:49:01.104Z,10.60
2023-03-06T05:51:30.212Z,9.97
2023-03-06T05:53:57.860Z,9.77
2023-03-06T05:56:25.588Z,9.33
2023-03-06T05:58:53.301Z,9.20
2023-03-06T06:01:22.086Z,9.43
2023-03-06T06:03:49.806Z,8.50
2023-03-06T06:06:17.494Z,8.90
2023-03-06T06:08:46.610Z,9.30
2023-03-06T06:11:14.518Z,9.17
2023-03-06T06:13:43.060Z,8.87
2023-03-06T06:16:11.638Z,9.03
2023-03-06T06:18:41.252Z,9.57
2023-03-06T06:21:09.711Z,9.30
2023-03-06T06:23:37.439Z,9.37
2023-03-06T06:26:07.970Z,9.50
2023-03-06T06:28:35.733Z,8.93
2023-03-06T06:31:08.714Z,8.93
2023-03-06T06:33:36.444Z,9.00
2023-03-06T06:36:04.283Z,8.83
2023-03-06T06:38:31.986Z,9.17
2023-03-06T06:41:32.987Z,9.57
2023-03-06T06:43:48.915Z,8.60
2023-03-06T06:46:56.214Z,9.10
2023-03-06T06:49:05.638Z,8.40
2023-03-06T06:51:33.687Z,9.17
2023-03-06T06:54:01.471Z,9.40
2023-03-06T06:56:29.163Z,8.67
2023-03-06T06:59:15.271Z,8.37
2023-03-06T07:01:44.221Z,8.80
2023-03-06T07:04:12.812Z,8.93
2023-03-06T07:06:40.493Z,8.43
2023-03-06T07:09:08.222Z,8.30
2023-03-06T07:11:35.955Z,8.50
2023-03-06T07:14:05.032Z,8.57
2023-03-06T07:16:32.715Z,7.87
2023-03-06T07:19:00.375Z,8.03
2023-03-06T07:21:28.060Z,8.10
2023-03-06T07:23:57.565Z,8.30
2023-03-06T07:26:25.390Z,7.83
2023-03-06T07:28:54.018Z,7.60
2023-03-06T07:31:24.496Z,8.77
2023-03-06T07:33:53.073Z,7.67
2023-03-06T07:36:21.025Z,7.23
2023-03-06T07:38:48.865Z,7.77
2023-03-06T07:41:22.203Z,7.83
2023-03-06T07:43:50.816Z,7.30
2023-03-06T07:46:18.675Z,7.63
2023-03-06T07:48:47.783Z,7.43
2023-03-06T07:51:16.507Z,7.40
2023-03-06T07:53:44.452Z,8.30
2023-03-06T07:56:12.818Z,7.57
2023-03-06T07:58:41.508Z,7.83
2023-03-06T08:01:10.108Z,7.70
2023-03-06T08:03:38.383Z,7.73
2023-03-06T08:06:08.773Z,8.00
2023-03-06T08:08:36.586Z,8.00
2023-03-06T08:11:04.569Z,8.10
2023-03-06T08:13:32.432Z,8.43
2023-03-06T08:16:01.009Z,8.07
2023-03-06T08:18:28.950Z,8.57
2023-03-06T08:21:02.758Z,8.60
2023-03-06T08:23:31.958Z,8.93
2023-03-06T08:26:00.117Z,9.07
2023-03-06T08:28:28.583Z,9.20
2023-03-06T08:30:56.378Z,9.17
2023-03-06T08:33:24.947Z,9.40
2023-03-06T08:35:53.540Z,9.30
2023-03-06T08:38:21.263Z,9.40
2023-03-06T08:40:50.417Z,9.03
2023-03-06T08:43:18.108Z,9.10
2023-03-06T08:45:45.860Z,8.90
2023-03-06T08:48:13.596Z,9.20
2023-03-06T08:50:42.064Z,9.30
2023-03-06T08:53:09.791Z,8.80
2023-03-06T08:55:37.758Z,9.53
2023-03-06T08:58:07.079Z,9.97
2023-03-06T09:00:35.009Z,9.60
2023-03-06T09:03:02.987Z,9.70
2023-03-06T09:05:30.736Z,9.93
2023-03-06T09:07:58.479Z,10.10
2023-03-06T09:10:26.598Z,10.30
2023-03-06T09:12:55.426Z,11.23
2023-03-06T09:15:25.114Z,11.30
2023-03-06T09:17:54.217Z,10.47
2023-03-06T09:20:22.367Z,11.07
2023-03-06T09:22:50.085Z,11.17
2023-03-06T09:25:20.513Z,11.50
2023-03-06T09:27:55.506Z,10.43
2023-03-06T09:30:31.192Z,11.43
2023-03-06T09:32:58.932Z,11.43
2023-03-06T09:35:26.679Z,11.73
2023-03-06T09:37:54.418Z,11.50
2023-03-06T09:40:27.171Z,11.03
2023-03-06T09:42:54.921Z,10.27
2023-03-06T09:45:22.943Z,10.80
2023-03-06T09:47:53.751Z,11.10
2023-03-06T09:50:33.540Z,10.70
2023-03-06T09:53:18.864Z,10.30
2023-03-06T09:55:50.250Z,10.10
2023-03-06T09:58:19.119Z,9.87
2023-03-06T10:00:48.221Z,9.77
2023-03-06T10:03:21.032Z,8.20
2023-03-06T10:05:50.855Z,8.80
2023-03-06T10:08:21.122Z,8.77
2023-03-06T10:10:52.135Z,7.93
2023-03-06T10:13:22.028Z,7.80
2023-03-06T10:15:50.687Z,8.63
2023-03-06T10:18:19.876Z,8.00
2023-03-06T10:20:49.607Z,8.10
2023-03-06T10:23:40.184Z,8.67
2023-03-06T10:26:13.025Z,8.00
2023-03-06T10:28:43.060Z,8.10
2023-03-06T10:31:14.662Z,8.10
2023-03-06T10:33:48.967Z,8.13
2023-03-06T10:36:17.397Z,8.67
2023-03-06T10:38:45.988Z,8.33
2023-03-06T10:41:21.082Z,10.00
2023-03-06T10:44:18.708Z,9.43
2023-03-06T10:46:48.086Z,10.70
2023-03-06T10:49:28.018Z,9.73
2023-03-06T10:52:01.191Z,10.53
2023-03-06T10:54:29.585Z,11.70
2023-03-06T10:56:57.334Z,11.33
2023-03-06T10:59:26.607Z,12.10
2023-03-06T11:01:55.629Z,11.60
2023-03-06T11:04:25.318Z,12.70
2023-03-06T11:07:14.124Z,12.70
2023-03-06T11:09:43.875Z,12.70
2023-03-06T11:12:22.957Z,12.40
2023-03-06T11:15:09.033Z,12.63
2023-03-06T11:17:37.405Z,12.67
2023-03-06T11:20:16.624Z,12.43
2023-03-06T11:22:49.090Z,13.23
2023-03-06T11:25:19.437Z,13.63
2023-03-06T11:27:48.876Z,13.83
2023-03-06T11:30:19.452Z,14.00
2023-03-06T11:32:50.526Z,13.90
2023-03-06T11:35:21.617Z,14.37
2023-03-06T11:37:53.963Z,13.07
2023-03-06T11:40:25.947Z,12.07
2023-03-06T11:42:57.415Z,12.90
2023-03-06T11:45:31.963Z,12.30
2023-03-06T11:48:04.518Z,13.43
2023-03-06T11:50:34.813Z,13.50
2023-03-06T11:53:03.362Z,13.73
2023-03-06T11:55:42.340Z,13.07
2023-03-06T11:58:27.813Z,12.97
2023-03-06T12:00:59.067Z,13.00
2023-03-06T12:03:42.975Z,13.23
2023-03-06T12:06:15.004Z,12.40
2023-03-06T12:08:51.196Z,12.27
2023-03-06T12:11:21.679Z,12.17
2023-03-06T12:13:57.015Z,12.10
2023-03-06T12:16:36.071Z,13.37
2023-03-06T12:19:13.832Z,14.10
2023-03-06T12:21:47.797Z,13.03
2023-03-06T12:24:21.465Z,13.37
2023-03-06T12:26:56.182Z,13.50
2023-03-06T12:29:33.564Z,13.57
2023-03-06T12:32:14.250Z,12.63
2023-03-06T12:34:48.710Z,13.23
2023-03-06T12:37:20.353Z,13.83
2023-03-06T12:39:56.060Z,13.57
2023-03-06T12:42:35.286Z,13.47
2023-03-06T12:45:19.405Z,13.57
2023-03-06T12:47:48.538Z,13.77
2023-03-06T12:50:21.982Z,14.47
2023-03-06T12:52:49.899Z,13.40
2023-03-06T12:55:22.144Z,13.20
2023-03-06T12:57:52.842Z,12.47
2023-03-06T13:00:39.019Z,13.27
2023-03-06T13:03:11.536Z,13.17
2023-03-06T13:05:59.166Z,13.57
2023-03-06T13:08:47.874Z,13.73
2023-03-06T13:11:33.218Z,14.30
2023-03-06T13:14:20.669Z,14.13
2023-03-06T13:16:48.460Z,14.30
2023-03-06T13:19:19.239Z,13.27
2023-03-06T13:22:07.990Z,14.23
2023-03-06T13:24:37.253Z,14.13
2023-03-06T13:27:06.925Z,12.67
2023-03-06T13:30:01.493Z,12.60
2023-03-06T13:32:31.993Z,12.37
2023-03-06T13:34:59.758Z,13.00
2023-03-06T13:37:48.712Z,12.83
2023-03-06T13:40:35.644Z,12.43
2023-03-06T13:43:21.927Z,12.10
2023-03-06T13:45:51.142Z,11.10
2023-03-06T13:48:45.876Z,11.27
2023-03-06T13:51:23.483Z,9.73
2023-03-06T13:54:13.777Z,9.70
2023-03-06T13:56:53.533Z,10.47
2023-03-06T13:59:31.994Z,10.23
2023-03-06T14:02:03.729Z,10.67
2023-03-06T14:04:46.835Z,10.30
2023-03-06T14:07:21.705Z,9.90
2023-03-06T14:09:52.799Z,9.83
2023-03-06T14:12:24.191Z,9.83
2023-03-06T14:14:54.186Z,10.60
2023-03-06T14:17:25.343Z,10.83
2023-03-06T14:19:54.620Z,9.97
2023-03-06T14:22:24.007Z,10.83
2023-03-06T14:24:59.780Z,10.90
2023-03-06T14:27:40.722Z,11.73
2023-03-06T14:30:12.476Z,11.57
2023-03-06T14:32:41.187Z,12.30
2023-03-06T14:35:20.389Z,12.33
2023-03-06T14:37:49.944Z,12.80
2023-03-06T14:40:20.116Z,12.23
2023-03-06T14:42:47.872Z,11.13
2023-03-06T14:45:17.240Z,10.03
2023-03-06T14:47:45.572Z,9.87
2023-03-06T14:50:25.566Z,10.03
2023-03-06T14:52:55.406Z,10.10
2023-03-06T14:55:24.392Z,9.93
2023-03-06T14:57:55.627Z,9.50
2023-03-06T15:00:24.314Z,9.57
2023-03-06T15:02:53.824Z,8.90
2023-03-06T15:05:23.505Z,9.47
2023-03-06T15:07:54.104Z,12.17
2023-03-06T15:10:25.585Z,14.73
2023-03-06T15:12:53.644Z,16.43
2023-03-06T15:15:32.610Z,15.17
2023-03-06T15:18:00.668Z,15.10
2023-03-06T15:20:38.435Z,12.60
2023-03-06T15:23:16.647Z,14.97
2023-03-06T15:25:50.604Z,13.50
2023-03-06T15:28:26.988Z,12.43
2023-03-06T15:31:05.875Z,11.00
2023-03-06T15:33:33.634Z,11.13
2023-03-06T15:36:02.149Z,9.63
2023-03-06T15:38:38.434Z,8.73
2023-03-06T15:41:07.535Z,8.37
2023-03-06T15:43:36.329Z,10.23
2023-03-06T15:46:05.536Z,10.77
2023-03-06T15:48:33.897Z,10.70
2023-03-06T15:51:01.585Z,11.87
2023-03-06T15:53:29.737Z,14.00
2023-03-06T15:55:59.789Z,14.47
2023-03-06T15:58:29.411Z,15.10
2023-03-06T16:00:57.186Z,13.87
2023-03-06T16:03:24.953Z,13.53
2023-03-06T16:05:52.640Z,14.03
2023-03-06T16:08:20.308Z,13.40
2023-03-06T16:10:48.265Z,13.63
2023-03-06T16:13:20.535Z,12.33
2023-03-06T16:15:49.514Z,12.27
2023-03-06T16:18:17.644Z,11.83
2023-03-06T16:20:45.755Z,12.50
2023-03-06T16:23:15.063Z,12.67
2023-03-06T16:25:45.214Z,11.90
2023-03-06T16:28:15.556Z,12.10
2023-03-06T16:30:45.472Z,11.23
2023-03-06T16:33:13.540Z,12.20
2023-03-06T16:35:41.447Z,10.83
2023-03-06T16:38:09.757Z,10.87
2023-03-06T16:40:41.288Z,12.30
2023-03-06T16:43:09.716Z,11.57
2023-03-06T16:45:38.493Z,10.97
2023-03-06T16:48:08.377Z,11.27
2023-03-06T16:50:38.202Z,11.93
2023-03-06T16:53:06.077Z,12.43
2023-03-06T16:55:33.872Z,12.23
2023-03-06T16:58:01.637Z,10.07
2023-03-06T17:00:33.137Z,10.37
2023-03-06T17:03:01.161Z,11.93
2023-03-06T17:05:33.167Z,11.87
2023-03-06T17:08:00.888Z,12.67
2023-03-06T17:10:28.637Z,12.07
2023-03-06T17:12:57.163Z,10.80
2023-03-06T17:15:24.924Z,10.37
2023-03-06T17:17:53.358Z,9.03
2023-03-06T17:20:21.314Z,9.90
2023-03-06T17:22:50.674Z,8.83
2023-03-06T17:25:18.511Z,9.53
2023-03-06T17:27:46.235Z,9.10
2023-03-06T17:30:14.189Z,9.67
2023-03-06T17:32:42.375Z,9.43
2023-03-06T17:35:10.671Z,10.30
2023-03-06T17:37:38.690Z,9.83
2023-03-06T17:40:10.369Z,10.27
2023-03-06T17:42:38.139Z,10.97
2023-03-06T17:45:09.198Z,10.03
2023-03-06T17:47:36.949Z,10.03
2023-03-06T17:50:05.161Z,9.63
2023-03-06T17:52:33.474Z,9.73
2023-03-06T17:55:01.192Z,9.43
2023-03-06T17:57:30.248Z,8.93
2023-03-06T17:59:57.970Z,9.53
2023-03-06T18:02:25.828Z,9.00
2023-03-06T18:04:53.594Z,9.37
2023-03-06T18:07:21.325Z,9.67
2023-03-06T18:09:49.089Z,9.03
2023-03-06T18:12:16.841Z,9.30
2023-03-06T18:14:46.707Z,9.23
2023-03-06T18:17:14.396Z,10.40
2023-03-06T18:19:42.175Z,10.17
2023-03-06T18:22:10.076Z,10.83
2023-03-06T18:24:37.879Z,10.80
2023-03-06T18:27:05.642Z,10.00
2023-03-06T18:29:33.412Z,9.73
2023-03-06T18:32:03.119Z,9.37
2023-03-06T18:34:33.006Z,10.50
2023-03-06T18:37:00.711Z,9.30
2023-03-06T18:39:28.389Z,9.53
2023-03-06T18:41:56.565Z,10.07
2023-03-06T18:44:24.234Z,10.50
2023-03-06T18:46:52.057Z,10.97
2023-03-06T18:49:21.216Z,11.10
2023-03-06T18:51:50.510Z,11.07
2023-03-06T18:54:18.231Z,11.10
2023-03-06T18:56:45.938Z,10.70
2023-03-06T18:59:16.090Z,10.77
2023-03-06T19:01:45.266Z,11.47
2023-03-06T19:04:13.039Z,11.00
2023-03-06T19:06:42.814Z,11.50
2023-03-06T19:09:11.425Z,11.23
2023-03-06T19:11:39.147Z,12.37
2023-03-06T19:14:07.153Z,12.97
2023-03-06T19:16:35.144Z,11.83
2023-03-06T19:19:02.961Z,12.37
2023-03-06T19:21:30.720Z,13.13
2023-03-06T19:24:00.050Z,13.30
2023-03-06T19:26:28.262Z,13.67
2023-03-06T19:28:56.081Z,13.53
2023-03-06T19:31:25.413Z,13.50
2023-03-06T19:33:54.159Z,13.57
2023-03-06T19:36:26.934Z,13.43
2023-03-06T19:38:55.187Z,13.43
2023-03-06T19:41:24.452Z,14.00
2023-03-06T19:43:53.788Z,12.70
2023-03-06T19:46:21.927Z,12.50
2023-03-06T19:48:49.799Z,13.47
2023-03-06T19:51:17.629Z,14.13
2023-03-06T19:53:45.396Z,13.43
2023-03-06T19:56:14.578Z,13.20
2023-03-06T19:58:43.747Z,13.53
2023-03-06T20:01:12.329Z,13.70
2023-03-06T20:03:40.431Z,14.80
2023-03-06T20:06:09.270Z,13.50
2023-03-06T20:08:37.252Z,13.50
2023-03-06T20:11:05.214Z,14.10
2023-03-06T20:13:32.942Z,13.53
2023-03-06T20:16:04.996Z,13.67
2023-03-06T20:18:32.695Z,12.83
2023-03-06T20:21:01.780Z,12.73
2023-03-06T20:23:29.575Z,12.57
2023-03-06T20:25:57.372Z,12.60
2023-03-06T20:28:25.083Z,12.40
2023-03-06T20:30:52.825Z,12.43
2023-03-06T20:33:23.061Z,12.73
2023-03-06T20:35:50.906Z,11.70
2023-03-06T20:38:18.853Z,11.90
2023-03-06T20:40:46.775Z,12.97
2023-03-06T20:43:14.519Z,12.00
2023-03-06T20:45:42.241Z,12.37
2023-03-06T20:48:10.076Z,13.13
2023-03-06T20:50:39.310Z,12.03
2023-03-06T20:53:07.007Z,12.97
2023-03-06T20:55:37.505Z,12.57
2023-03-06T20:58:05.261Z,11.83
2023-03-06T21:00:32.999Z,11.40
2023-03-06T21:03:00.740Z,11.93
2023-03-06T21:05:28.446Z,10.50
2023-03-06T21:07:57.703Z,12.00
2023-03-06T21:10:25.412Z,11.93
2023-03-06T21:12:53.240Z,11.27
2023-03-06T21:15:21.656Z,11.33
2023-03-06T21:17:49.355Z,11.03
2023-03-06T21:20:18.507Z,12.47
2023-03-06T21:22:46.288Z,11.73
2023-03-06T21:25:15.903Z,11.57
2023-03-06T21:27:44.163Z,11.40
2023-03-06T21:30:12.500Z,11.03
2023-03-06T21:32:40.242Z,11.00
2023-03-06T21:35:08.106Z,10.90
2023-03-06T21:37:35.803Z,11.70
2023-03-06T21:40:05.035Z,11.57
2023-03-06T21:42:35.878Z,11.73
2023-03-06T21:45:04.059Z,10.93
2023-03-06T21:47:37.730Z,10.33
2023-03-06T21:50:05.875Z,10.73
2023-03-06T21:52:33.580Z,11.33
2023-03-06T21:55:01.350Z,10.93
2023-03-06T21:57:29.147Z,11.67
2023-03-06T21:59:58.327Z,11.87
2023-03-06T22:02:26.045Z,11.53
2023-03-06T22:04:53.947Z,11.07
2023-03-06T22:07:22.940Z,10.87
2023-03-06T22:09:53.155Z,11.27
2023-03-06T22:12:20.914Z,10.93
2023-03-06T22:14:48.614Z,10.90
2023-03-06T22:17:17.709Z,10.80
2023-03-06T22:19:45.502Z,10.83
2023-03-06T22:22:13.400Z,11.50
2023-03-06T22:24:41.178Z,10.90
2023-03-06T22:27:08.913Z,11.07
2023-03-06T22:29:36.598Z,11.23
2023-03-06T22:32:04.394Z,11.50
2023-03-06T22:34:33.602Z,10.90
2023-03-06T22:37:01.416Z,11.30
2023-03-06T22:39:29.366Z,11.60
2023-03-06T22:41:57.099Z,11.23
2023-03-06T22:44:25.050Z,10.67
2023-03-06T22:46:53.539Z,12.03
2023-03-06T22:49:21.261Z,11.40
2023-03-06T22:51:50.396Z,11.33
2023-03-06T22:54:18.061Z,12.10
2023-03-06T22:56:45.778Z,11.77
2023-03-06T22:59:13.544Z,11.47
2023-03-06T23:01:41.852Z,11.40
2023-03-06T23:04:11.459Z,11.20
2023-03-06T23:06:40.578Z,10.70
2023-03-06T23:09:13.205Z,10.77
2023-03-06T23:11:40.969Z,10.90
2023-03-06T23:14:08.675Z,10.60
2023-03-06T23:16:36.710Z,10.53
2023-03-06T23:19:04.523Z,10.47
2023-03-06T23:21:32.300Z,10.90
2023-03-06T23:23:59.991Z,10.87
2023-03-06T23:26:30.243Z,10.33
2023-03-06T23:28:58.134Z,10.77
2023-03-06T23:31:28.543Z,10.97
2023-03-06T23:33:57.770Z,11.13
2023-03-06T23:36:25.574Z,11.00
2023-03-06T23:38:53.387Z,11.17
2023-03-06T23:41:21.766Z,10.63
2023-03-06T23:43:52.893Z,10.87
2023-03-06T23:46:21.881Z,10.73
2023-03-06T23:48:49.632Z,11.23
2023-03-06T23:51:18.316Z,10.80
2023-03-06T23:53:46.830Z,10.73
2023-03-06T23:56:14.571Z,11.00
2023-03-06T23:58:42.633Z,11.10
